Time;durP1;ratioP1;P1;durP2;ratioP2;P2;SDS_P1;SDS_P2;PMS_P1;PMS_P2;Temp;Humidity;BMP_temperature;BMP_pressure;BME280_temperature;BME280_humidity;BME280_pressure;Samples;Min_cycle;Max_cycle;Signal;HPM_P1;HPM_P2
2022/03/17 00:00:36;;;;;;;0.30;0.30;;;0.10;99.90;;;;;;5071895;28;20211;-84
2022/03/17 00:03:03;;;;;;;0.30;0.30;;;0.10;99.90;;;;;;5059598;28;20232;-85
2022/03/17 00:05:28;;;;;;;0.40;0.40;;;0.10;99.90;;;;;;5092208;28;20196;-85
2022/03/17 00:07:54;;;;;;;0.63;0.63;;;0.00;99.90;;;;;;5074112;28;20662;-84
2022/03/17 00:10:20;;;;;;;0.30;0.30;;;0.10;99.90;;;;;;5073602;28;20216;-84
2022/03/17 00:12:47;;;;;;;0.95;0.80;;;0.10;99.90;;;;;;5074085;28;20196;-84
2022/03/17 00:15:14;;;;;;;0.40;0.40;;;0.10;99.90;;;;;;5074152;28;20294;-85
2022/03/17 00:17:43;;;;;;;0.35;0.35;;;0.10;99.90;;;;;;5073788;28;20208;-84
2022/03/17 00:20:10;;;;;;;2.80;1.25;;;0.10;99.90;;;;;;5073914;28;20261;-85
2022/03/17 00:22:37;;;;;;;0.30;0.30;;;0.10;99.90;;;;;;5073873;28;20200;-85
2022/03/17 00:25:05;;;;;;;0.32;0.32;;;0.10;99.90;;;;;;5077214;28;20191;-84
2022/03/17 00:27:31;;;;;;;0.30;0.30;;;0.10;99.90;;;;;;5093980;28;20568;-85
2022/03/17 00:29:57;;;;;;;0.50;0.50;;;0.00;99.90;;;;;;5096204;28;20223;-84
2022/03/17 00:32:26;;;;;;;0.52;0.52;;;0.00;99.90;;;;;;5083772;28;20208;-84
2022/03/17 00:37:36;;;;;;;0.38;0.38;;;0.00;99.90;;;;;;5095709;28;20332;-86
2022/03/17 00:40:03;;;;;;;1.17;1.00;;;0.00;99.90;;;;;;5077345;28;20298;-85
2022/03/17 00:42:28;;;;;;;0.70;0.70;;;0.00;99.90;;;;;;5095280;28;20192;-86
2022/03/17 00:44:57;;;;;;;0.40;0.40;;;0.00;99.90;;;;;;5077347;28;20195;-85
2022/03/17 00:47:22;;;;;;;0.20;0.20;;;0.00;99.90;;;;;;5077229;28;20204;-85
2022/03/17 00:49:48;;;;;;;0.32;0.32;;;0.00;99.90;;;;;;5095388;28;20192;-86
2022/03/17 00:52:16;;;;;;;0.40;0.40;;;0.00;99.90;;;;;;5077274;28;20192;-85
2022/03/17 00:54:42;;;;;;;0.30;0.30;;;-0.10;99.90;;;;;;5077033;28;20246;-85
2022/03/17 00:57:12;;;;;;;0.52;0.52;;;0.00;99.90;;;;;;5095235;28;20192;-86
2022/03/17 00:59:38;;;;;;;0.40;0.40;;;0.00;99.90;;;;;;5076774;28;20663;-85
2022/03/17 01:02:05;;;;;;;0.57;0.57;;;-0.10;99.90;;;;;;5076892;28;20279;-85
2022/03/17 01:04:31;;;;;;;0.30;0.30;;;-0.10;99.90;;;;;;5094500;28;20232;-85
2022/03/17 01:06:57;;;;;;;0.30;0.30;;;-0.10;99.90;;;;;;5094960;28;20195;-85
2022/03/17 01:09:23;;;;;;;0.30;0.30;;;-0.10;99.90;;;;;;5094759;28;20291;-85
2022/03/17 01:11:49;;;;;;;0.30;0.30;;;-0.10;99.90;;;;;;5076766;28;20223;-81
2022/03/17 01:14:15;;;;;;;0.38;0.38;;;-0.20;99.90;;;;;;5095052;28;20192;-84
2022/03/17 01:16:41;;;;;;;0.40;0.40;;;-0.20;99.90;;;;;;5094607;28;20199;-83
2022/03/17 01:19:07;;;;;;;0.30;0.30;;;-0.20;99.90;;;;;;5076680;28;20667;-81
2022/03/17 01:21:34;;;;;;;0.30;0.30;;;-0.20;99.90;;;;;;5076222;28;20283;-80
2022/03/17 01:24:00;;;;;;;0.30;0.30;;;-0.20;99.90;;;;;;5094719;28;20220;-82
2022/03/17 01:26:26;;;;;;;0.40;0.40;;;-0.20;99.90;;;;;;5076446;28;20219;-82
2022/03/17 01:28:52;;;;;;;0.80;0.80;;;-0.20;99.90;;;;;;5076442;28;20207;-82
2022/03/17 01:31:22;;;;;;;0.40;0.40;;;-0.20;99.90;;;;;;5076352;28;20200;-82
2022/03/17 01:33:47;;;;;;;0.30;0.30;;;-0.20;99.90;;;;;;5076358;28;20204;-84
2022/03/17 01:36:13;;;;;;;0.65;0.65;;;-0.20;99.90;;;;;;5076807;28;20207;-83
2022/03/17 01:38:39;;;;;;;0.82;0.82;;;-0.20;99.90;;;;;;5075905;28;20212;-84
2022/03/17 01:41:04;;;;;;;0.40;0.40;;;-0.20;99.90;;;;;;5074992;28;20295;-84
2022/03/17 01:43:30;;;;;;;0.40;0.40;;;-0.30;99.90;;;;;;5079280;28;20227;-84
2022/03/17 01:45:56;;;;;;;0.32;0.32;;;-0.30;99.90;;;;;;5087110;28;20192;-82
2022/03/17 01:48:21;;;;;;;0.47;0.47;;;-0.30;99.90;;;;;;5094125;28;20725;-83
2022/03/17 01:50:54;;;;;;;10.75;1.17;;;-0.20;99.90;;;;;;5075955;28;20565;-82
2022/03/17 01:53:22;;;;;;;0.65;0.65;;;-0.30;99.90;;;;;;5075738;28;20200;-81
2022/03/17 01:55:48;;;;;;;0.30;0.30;;;-0.20;99.90;;;;;;5075944;28;20196;-81
2022/03/17 01:58:14;;;;;;;2.78;1.42;;;-0.30;99.90;;;;;;5094030;28;20671;-83
2022/03/17 02:00:40;;;;;;;0.40;0.40;;;-0.20;99.90;;;;;;5075823;28;20257;-80
2022/03/17 02:03:06;;;;;;;0.40;0.40;;;-0.30;99.90;;;;;;5075747;28;20273;-81
2022/03/17 02:05:34;;;;;;;0.47;0.47;;;-0.30;99.90;;;;;;5072055;28;20680;-83
2022/03/17 02:08:02;;;;;;;0.40;0.40;;;-0.30;99.90;;;;;;5073531;28;20588;-82
2022/03/17 02:13:08;;;;;;;0.35;0.35;;;-0.40;99.90;;;;;;5073442;28;20280;-82
2022/03/17 02:13:13;;;;;;;0.30;0.30;;;-0.50;99.90;;;;;;5073395;28;20207;-82
2022/03/17 02:15:40;;;;;;;1.00;1.00;;;-0.40;99.90;;;;;;5073203;28;20201;-82
2022/03/17 02:18:06;;;;;;;0.45;0.45;;;-0.40;99.90;;;;;;5073368;28;20191;-82
2022/03/17 02:20:33;;;;;;;0.30;0.30;;;-0.40;99.90;;;;;;5072670;28;20288;-82
2022/03/17 02:26:02;;;;;;;0.30;0.30;;;-0.40;99.90;;;;;;5093814;28;20194;-81
2022/03/17 02:28:30;;;;;;;0.40;0.40;;;-0.40;99.90;;;;;;5075151;28;20191;-81
2022/03/17 02:30:56;;;;;;;0.30;0.30;;;-0.40;99.90;;;;;;5093312;28;20268;-81
2022/03/17 02:33:23;;;;;;;0.40;0.40;;;-0.40;99.90;;;;;;5075030;28;20227;-81
2022/03/17 02:35:49;;;;;;;0.77;0.77;;;-0.50;99.90;;;;;;5075127;28;20661;-82
2022/03/17 02:38:16;;;;;;;0.30;0.30;;;-0.50;99.90;;;;;;5075178;28;20643;-82
2022/03/17 02:40:46;;;;;;;1.52;1.23;;;-0.50;99.90;;;;;;5074802;28;20204;-81
2022/03/17 02:43:14;;;;;;;0.35;0.35;;;-0.50;99.90;;;;;;5080893;28;20602;-82
2022/03/17 02:45:42;;;;;;;0.32;0.32;;;-0.60;99.90;;;;;;5054816;28;20232;-82
2022/03/17 02:48:08;;;;;;;0.40;0.40;;;-0.50;99.90;;;;;;5054959;28;20648;-82
2022/03/17 02:50:34;;;;;;;0.50;0.50;;;-0.60;99.90;;;;;;5054696;28;20201;-82
2022/03/17 02:53:05;;;;;;;0.40;0.40;;;-0.60;99.90;;;;;;5054527;28;20201;-82
2022/03/17 02:55:42;;;;;;;1.55;1.38;;;-0.60;99.90;;;;;;5054495;28;20655;-82
2022/03/17 02:58:09;;;;;;;3.20;0.70;;;-0.60;99.90;;;;;;5054724;28;20563;-81
2022/03/17 03:00:36;;;;;;;0.68;0.68;;;-0.50;99.90;;;;;;5075421;28;20211;-82
2022/03/17 03:03:02;;;;;;;0.80;0.80;;;-0.50;99.90;;;;;;5071176;28;20236;-82
2022/03/17 03:05:28;;;;;;;0.38;0.38;;;-0.50;99.90;;;;;;5067698;28;20197;-82
2022/03/17 03:07:54;;;;;;;0.80;0.80;;;-0.60;99.90;;;;;;5067890;28;20284;-81
2022/03/17 03:10:21;;;;;;;0.40;0.40;;;-0.60;99.90;;;;;;5068084;28;20632;-82
2022/03/17 03:12:47;;;;;;;0.50;0.50;;;-0.50;99.90;;;;;;5067925;28;20201;-82
2022/03/17 03:15:13;;;;;;;3.40;1.60;;;-0.60;99.90;;;;;;5067951;28;20660;-82
2022/03/17 03:17:39;;;;;;;0.30;0.30;;;-0.60;99.90;;;;;;5070890;28;20208;-82
2022/03/17 03:20:06;;;;;;;0.50;0.50;;;-0.60;99.90;;;;;;5071300;28;20576;-82
2022/03/17 03:22:39;;;;;;;0.40;0.40;;;-0.60;99.90;;;;;;5071029;28;20196;-82
2022/03/17 03:25:06;;;;;;;0.40;0.40;;;-0.60;99.90;;;;;;5071268;28;20199;-82
2022/03/17 03:27:31;;;;;;;3.45;1.30;;;-0.60;99.90;;;;;;5070892;28;20199;-81
2022/03/17 03:29:58;;;;;;;0.40;0.40;;;-0.60;99.90;;;;;;5071131;28;20295;-81
2022/03/17 03:32:25;;;;;;;0.40;0.40;;;-0.70;99.90;;;;;;5070754;28;20612;-82
2022/03/17 03:34:51;;;;;;;1.38;1.27;;;-0.70;99.90;;;;;;5071111;28;20216;-82
2022/03/17 03:37:23;;;;;;;0.85;0.80;;;-0.70;99.90;;;;;;5071014;28;20346;-82
2022/03/17 03:39:53;;;;;;;1.98;0.88;;;-0.80;99.90;;;;;;5050916;28;20672;-82
2022/03/17 03:42:20;;;;;;;0.55;0.55;;;-0.70;99.90;;;;;;5073690;28;20660;-82
2022/03/17 03:44:46;;;;;;;1.55;1.45;;;-0.70;99.90;;;;;;5071022;28;20200;-82
2022/03/17 03:47:12;;;;;;;0.50;0.50;;;-0.70;99.90;;;;;;5072307;28;20193;-82
2022/03/17 03:49:39;;;;;;;0.40;0.40;;;-0.80;99.90;;;;;;5070759;28;20279;-82
2022/03/17 03:52:08;;;;;;;0.30;0.30;;;-0.80;99.90;;;;;;5070915;28;20199;-82
2022/03/17 03:54:35;;;;;;;0.30;0.30;;;-0.80;99.90;;;;;;5072005;28;20189;-82
2022/03/17 03:57:02;;;;;;;0.40;0.40;;;-0.80;99.90;;;;;;5072119;28;20192;-82
2022/03/17 03:59:29;;;;;;;0.95;0.88;;;-0.80;99.90;;;;;;5070539;28;20737;-82
2022/03/17 04:01:55;;;;;;;0.30;0.30;;;-0.80;99.90;;;;;;5063947;28;20671;-81
2022/03/17 04:04:22;;;;;;;0.30;0.30;;;-0.80;99.90;;;;;;5076417;28;20264;-82
2022/03/17 04:06:50;;;;;;;0.40;0.40;;;-0.80;99.90;;;;;;5074623;28;20216;-82
2022/03/17 04:09:18;;;;;;;0.68;0.68;;;-0.80;99.90;;;;;;5075763;28;20275;-82
2022/03/17 04:11:45;;;;;;;0.47;0.47;;;-0.80;99.90;;;;;;5075697;28;20188;-82
2022/03/17 04:14:12;;;;;;;0.38;0.38;;;-0.80;99.90;;;;;;5075674;28;20200;-82
2022/03/17 04:16:38;;;;;;;0.60;0.60;;;-0.80;99.90;;;;;;5074113;28;20549;-82
2022/03/17 04:19:05;;;;;;;2.47;1.02;;;-0.80;99.90;;;;;;5075583;28;20203;-82
2022/03/17 04:21:31;;;;;;;2.85;1.48;;;-0.80;99.90;;;;;;5074438;28;20220;-81
2022/03/17 04:23:58;;;;;;;0.50;0.50;;;-0.80;99.90;;;;;;5074276;28;20605;-82
2022/03/17 04:26:24;;;;;;;0.60;0.60;;;-0.80;99.90;;;;;;5074105;28;20558;-83
2022/03/17 04:28:50;;;;;;;0.40;0.40;;;-0.80;99.90;;;;;;5074289;28;20670;-83
2022/03/17 04:31:16;;;;;;;0.40;0.40;;;-0.80;99.90;;;;;;5074191;28;20201;-82
2022/03/17 04:33:42;;;;;;;0.45;0.45;;;-0.90;99.90;;;;;;5073920;28;20205;-82
2022/03/17 04:36:10;;;;;;;1.63;0.60;;;-0.90;99.90;;;;;;5074116;28;20557;-83
2022/03/17 04:38:36;;;;;;;0.30;0.30;;;-1.00;99.90;;;;;;5073875;28;20295;-82
2022/03/17 04:41:02;;;;;;;0.40;0.40;;;-1.00;99.90;;;;;;5073964;28;20687;-82
2022/03/17 04:43:28;;;;;;;0.40;0.40;;;-1.00;99.90;;;;;;5073631;28;20199;-82
2022/03/17 04:45:53;;;;;;;0.45;0.45;;;-1.00;99.90;;;;;;5073971;28;20279;-82
2022/03/17 04:48:19;;;;;;;0.40;0.40;;;-1.00;99.90;;;;;;5055065;28;20194;-82
2022/03/17 04:50:45;;;;;;;0.45;0.45;;;-1.00;99.90;;;;;;5053858;28;20631;-82
2022/03/17 04:56:08;;;;;;;0.30;0.30;;;-1.00;99.90;;;;;;5055199;28;20225;-84
2022/03/17 04:58:36;;;;;;;2.88;1.48;;;-1.00;99.90;;;;;;5053408;28;20574;-84
2022/03/17 05:01:06;;;;;;;1.50;1.27;;;-1.00;99.90;;;;;;5054725;28;20599;-85
2022/03/17 05:03:33;;;;;;;0.40;0.40;;;-1.00;99.90;;;;;;5054434;28;20226;-83
2022/03/17 05:05:59;;;;;;;0.50;0.50;;;-1.00;99.90;;;;;;5073754;28;20197;-83
2022/03/17 05:08:25;;;;;;;0.40;0.40;;;-1.00;99.90;;;;;;5074592;28;20192;-82
2022/03/17 05:10:52;;;;;;;0.40;0.40;;;-1.00;99.90;;;;;;5073313;28;20209;-82
2022/03/17 05:13:19;;;;;;;0.40;0.40;;;-0.90;99.90;;;;;;5073413;28;20201;-83
2022/03/17 05:15:46;;;;;;;0.85;0.85;;;-1.00;99.90;;;;;;5073202;28;20570;-85
2022/03/17 05:18:12;;;;;;;0.50;0.50;;;-1.00;99.90;;;;;;5073404;28;20197;-84
2022/03/17 05:20:40;;;;;;;0.30;0.30;;;-1.00;99.90;;;;;;5072916;28;20254;-85
2022/03/17 05:23:11;;;;;;;0.30;0.30;;;-1.00;99.90;;;;;;5073203;28;20201;-85
2022/03/17 05:25:39;;;;;;;0.80;0.80;;;-1.10;99.90;;;;;;5072897;28;20228;-84
2022/03/17 05:28:06;;;;;;;0.60;0.60;;;-1.10;99.90;;;;;;5073208;28;20664;-84
2022/03/17 05:30:32;;;;;;;0.93;0.63;;;-1.10;99.90;;;;;;5072860;28;20656;-84
2022/03/17 05:32:58;;;;;;;0.43;0.43;;;-1.10;99.90;;;;;;5074194;28;20204;-83
2022/03/17 05:35:24;;;;;;;0.30;0.30;;;-1.10;99.90;;;;;;5072759;28;20200;-84
2022/03/17 05:37:50;;;;;;;0.50;0.50;;;-1.10;99.90;;;;;;5072929;28;20287;-82
2022/03/17 05:40:18;;;;;;;0.32;0.32;;;-1.10;99.90;;;;;;5072883;28;20208;-81
2022/03/17 05:42:46;;;;;;;0.30;0.30;;;-1.10;99.90;;;;;;5074282;28;20554;-83
2022/03/17 05:45:13;;;;;;;1.35;1.05;;;-1.00;99.90;;;;;;5072934;28;20193;-83
2022/03/17 05:47:47;;;;;;;0.43;0.43;;;-1.10;99.90;;;;;;5072608;28;20679;-83
2022/03/17 05:50:16;;;;;;;0.35;0.35;;;-1.10;99.90;;;;;;5073229;28;20647;-83
2022/03/17 05:52:43;;;;;;;1.67;0.90;;;-1.00;99.90;;;;;;5072547;28;20197;-82
2022/03/17 05:55:14;;;;;;;1.50;1.40;;;-1.00;99.90;;;;;;5072630;28;20197;-82
2022/03/17 05:57:41;;;;;;;0.50;0.50;;;-1.00;99.90;;;;;;5073648;28;20205;-82
2022/03/17 06:00:10;;;;;;;0.80;0.80;;;-1.00;99.90;;;;;;5072457;28;20221;-83
2022/03/17 06:02:37;;;;;;;0.55;0.55;;;-1.00;99.90;;;;;;5074198;28;20687;-82
2022/03/17 06:05:05;;;;;;;0.30;0.30;;;-1.00;99.90;;;;;;5072238;28;20559;-83
2022/03/17 06:07:42;;;;;;;0.40;0.40;;;-0.90;99.90;;;;;;5072713;28;20196;-83
2022/03/17 06:10:10;;;;;;;0.30;0.30;;;-0.90;99.90;;;;;;5093861;28;20192;-83
2022/03/17 06:12:36;;;;;;;0.35;0.35;;;-1.00;99.90;;;;;;5058681;28;20287;-83
2022/03/17 06:15:03;;;;;;;0.40;0.40;;;-0.90;99.90;;;;;;5093833;28;20196;-83
2022/03/17 06:17:36;;;;;;;1.70;1.60;;;-0.90;99.90;;;;;;5075251;28;20207;-82
2022/03/17 06:20:02;;;;;;;0.40;0.40;;;-0.90;99.90;;;;;;5093575;28;20211;-83
2022/03/17 06:22:28;;;;;;;0.30;0.30;;;-0.80;99.90;;;;;;5093430;28;20583;-83
2022/03/17 06:24:53;;;;;;;0.63;0.63;;;-0.90;99.90;;;;;;5075373;28;20188;-83
2022/03/17 06:27:19;;;;;;;0.30;0.30;;;-0.90;99.90;;;;;;5071196;28;20558;-82
2022/03/17 06:29:45;;;;;;;0.40;0.40;;;-0.80;99.90;;;;;;5072313;28;20497;-82
2022/03/17 06:32:11;;;;;;;0.47;0.47;;;-0.80;99.90;;;;;;5075343;28;20251;-82
2022/03/17 06:34:37;;;;;;;0.43;0.43;;;-0.80;99.90;;;;;;5093560;28;20227;-83
2022/03/17 06:37:02;;;;;;;0.30;0.30;;;-0.80;99.90;;;;;;5093384;28;20253;-82
2022/03/17 06:39:28;;;;;;;0.70;0.57;;;-0.70;99.90;;;;;;5074875;28;20206;-82
2022/03/17 06:41:54;;;;;;;0.40;0.40;;;-0.60;99.90;;;;;;5093435;28;20191;-88
2022/03/17 06:44:19;;;;;;;0.40;0.40;;;-0.60;99.90;;;;;;5075156;28;20196;-83
2022/03/17 06:46:45;;;;;;;0.40;0.40;;;-0.50;99.90;;;;;;5075021;28;20192;-85
2022/03/17 06:49:11;;;;;;;3.70;1.33;;;-0.60;99.90;;;;;;5093219;28;20188;-86
2022/03/17 06:51:36;;;;;;;0.40;0.40;;;-0.50;99.90;;;;;;5075317;28;20297;-88
2022/03/17 06:54:02;;;;;;;0.30;0.30;;;-0.50;99.90;;;;;;5093565;28;20643;-87
2022/03/17 06:56:28;;;;;;;1.23;1.13;;;-0.50;99.90;;;;;;5093008;28;20198;-86
2022/03/17 06:58:53;;;;;;;0.73;0.73;;;-0.50;99.90;;;;;;5074933;28;20211;-85
2022/03/17 07:01:19;;;;;;;0.40;0.40;;;-0.40;99.90;;;;;;5074584;28;20241;-84
2022/03/17 07:03:44;;;;;;;0.30;0.30;;;-0.30;99.90;;;;;;5071119;28;20244;-86
2022/03/17 07:06:10;;;;;;;0.50;0.50;;;-0.30;99.90;;;;;;5072767;28;20188;-86
2022/03/17 07:08:36;;;;;;;0.60;0.60;;;-0.40;99.90;;;;;;5071271;28;20332;-86
2022/03/17 07:11:01;;;;;;;0.45;0.45;;;-0.30;99.90;;;;;;5072952;28;20199;-84
2022/03/17 07:13:27;;;;;;;0.30;0.30;;;-0.30;99.90;;;;;;5070637;28;20225;-85
2022/03/17 07:15:53;;;;;;;0.40;0.40;;;-0.20;99.90;;;;;;5071566;28;20280;-86
2022/03/17 07:18:19;;;;;;;0.40;0.40;;;-0.30;99.90;;;;;;5071367;28;20205;-83
2022/03/17 07:20:45;;;;;;;1.70;1.38;;;-0.30;99.90;;;;;;5070917;28;20631;-83
2022/03/17 07:23:10;;;;;;;1.35;1.25;;;-0.30;99.90;;;;;;5071083;28;20189;-84
2022/03/17 07:25:36;;;;;;;0.40;0.40;;;-0.20;99.90;;;;;;5070936;28;20580;-87
2022/03/17 07:28:04;;;;;;;0.70;0.70;;;-0.20;99.90;;;;;;5071305;28;20244;-87
2022/03/17 07:30:31;;;;;;;0.40;0.40;;;-0.20;99.90;;;;;;5071490;28;20283;-85
2022/03/17 07:32:59;;;;;;;0.40;0.40;;;-0.20;99.90;;;;;;5071429;28;20219;-86
2022/03/17 07:35:26;;;;;;;0.80;0.68;;;-0.10;99.90;;;;;;5070897;28;20566;-86
2022/03/17 07:37:52;;;;;;;6.60;2.75;;;0.00;99.90;;;;;;5072724;28;20192;-85
2022/03/17 07:40:18;;;;;;;0.98;0.95;;;0.00;99.90;;;;;;5075087;28;20330;-84
2022/03/17 07:42:44;;;;;;;0.73;0.73;;;0.10;99.90;;;;;;5076552;28;20204;-84
2022/03/17 07:45:11;;;;;;;1.15;1.05;;;0.10;99.90;;;;;;5076374;28;20601;-84
2022/03/17 07:47:44;;;;;;;0.40;0.40;;;0.10;99.90;;;;;;5076266;28;20203;-84
2022/03/17 07:50:11;;;;;;;0.43;0.43;;;0.20;99.90;;;;;;5075063;28;20245;-85
2022/03/17 07:52:36;;;;;;;0.75;0.75;;;0.20;99.90;;;;;;5074811;28;20204;-84
2022/03/17 07:55:02;;;;;;;0.65;0.65;;;0.20;99.90;;;;;;5074905;28;20204;-83
2022/03/17 07:57:28;;;;;;;0.38;0.38;;;0.20;99.90;;;;;;5075897;28;20193;-83
2022/03/17 07:59:54;;;;;;;1.48;0.80;;;0.20;99.90;;;;;;5075976;28;20200;-83
2022/03/17 08:02:20;;;;;;;2.55;1.70;;;0.20;99.90;;;;;;5074519;28;20557;-82
2022/03/17 08:04:48;;;;;;;4.47;1.58;;;0.20;99.90;;;;;;5071011;28;20221;-83
2022/03/17 08:07:14;;;;;;;0.45;0.45;;;0.20;99.90;;;;;;5071185;28;20197;-82
2022/03/17 08:09:39;;;;;;;1.73;1.63;;;0.20;99.90;;;;;;5054414;28;20211;-83
2022/03/17 08:12:06;;;;;;;0.30;0.30;;;0.20;99.90;;;;;;5071203;28;20225;-83
2022/03/17 08:14:31;;;;;;;1.65;1.40;;;0.20;99.90;;;;;;5070865;28;20194;-83
2022/03/17 08:16:58;;;;;;;1.27;0.90;;;0.20;99.90;;;;;;5055695;28;20567;-83
2022/03/17 08:19:24;;;;;;;0.55;0.55;;;0.30;99.90;;;;;;5073966;28;20200;-83
2022/03/17 08:21:50;;;;;;;1.55;1.42;;;0.30;99.90;;;;;;5075173;28;20556;-83
2022/03/17 08:24:15;;;;;;;0.47;0.47;;;0.40;99.90;;;;;;5074216;28;20227;-83
2022/03/17 08:26:41;;;;;;;0.60;0.60;;;0.40;99.90;;;;;;5074327;28;20204;-83
2022/03/17 08:29:06;;;;;;;0.50;0.50;;;0.40;99.90;;;;;;5074592;28;20211;-83
2022/03/17 08:31:33;;;;;;;0.75;0.75;;;0.40;99.90;;;;;;5073987;28;20205;-83
2022/03/17 08:33:58;;;;;;;1.60;1.50;;;0.60;99.90;;;;;;5074135;28;20200;-83
2022/03/17 08:36:25;;;;;;;1.90;1.08;;;0.60;99.90;;;;;;5074631;28;20250;-83
2022/03/17 08:38:54;;;;;;;0.50;0.50;;;0.60;99.90;;;;;;5075356;28;20268;-82
2022/03/17 08:41:20;;;;;;;3.25;1.00;;;0.70;99.90;;;;;;5075070;28;20196;-82
2022/03/17 08:43:47;;;;;;;0.63;0.63;;;0.90;99.90;;;;;;5075449;28;20241;-82
2022/03/17 08:51:42;;;;;;;0.50;0.50;;;0.90;99.90;;;;;;5074975;28;20208;-83
2022/03/17 08:54:07;;;;;;;0.50;0.50;;;0.90;99.90;;;;;;5075157;28;20189;-83
2022/03/17 08:56:34;;;;;;;1.05;0.98;;;0.80;99.90;;;;;;5073497;28;20564;-83
2022/03/17 08:59:00;;;;;;;0.35;0.35;;;1.00;99.90;;;;;;5075142;28;20223;-83
2022/03/17 09:01:26;;;;;;;1.10;1.00;;;1.00;99.90;;;;;;5073730;28;20258;-83
2022/03/17 09:03:53;;;;;;;0.50;0.50;;;1.10;99.90;;;;;;5069969;28;20673;-83
2022/03/17 09:06:18;;;;;;;0.90;0.90;;;1.20;99.90;;;;;;5054859;28;20243;-83
2022/03/17 09:08:44;;;;;;;0.93;0.93;;;1.30;99.90;;;;;;5070133;28;20198;-83
2022/03/17 09:11:14;;;;;;;0.45;0.40;;;1.20;99.90;;;;;;5054808;28;20190;-84
2022/03/17 09:13:41;;;;;;;1.83;1.50;;;1.20;99.90;;;;;;5054645;28;20216;-83
2022/03/17 09:16:07;;;;;;;0.95;0.93;;;1.30;99.90;;;;;;5064802;28;20690;-83
2022/03/17 09:18:33;;;;;;;0.30;0.30;;;1.30;99.90;;;;;;5073244;28;20197;-83
2022/03/17 09:21:02;;;;;;;0.63;0.63;;;1.30;99.90;;;;;;5062168;28;20652;-83
2022/03/17 09:23:33;;;;;;;2.08;1.42;;;1.20;99.90;;;;;;5053196;28;20594;-83
2022/03/17 09:25:59;;;;;;;0.40;0.40;;;1.30;99.90;;;;;;5053240;28;20208;-83
2022/03/17 09:28:26;;;;;;;0.57;0.57;;;1.40;99.90;;;;;;5053082;28;20239;-83
2022/03/17 09:30:52;;;;;;;0.60;0.60;;;1.50;99.90;;;;;;5054382;28;20280;-83
2022/03/17 09:33:18;;;;;;;0.40;0.40;;;1.40;99.90;;;;;;5053492;28;20570;-82
2022/03/17 09:35:44;;;;;;;1.23;1.13;;;1.40;99.90;;;;;;5066532;28;20283;-83
2022/03/17 09:38:10;;;;;;;3.30;1.15;;;1.50;99.90;;;;;;5073092;28;20735;-83
2022/03/17 09:40:36;;;;;;;0.55;0.55;;;1.50;99.90;;;;;;5089480;28;20205;-83
2022/03/17 09:43:19;;;;;;;0.68;0.68;;;1.40;99.90;;;;;;5089765;28;20196;-82
2022/03/17 09:45:46;;;;;;;0.70;0.70;;;1.50;99.90;;;;;;5089735;28;20534;-86
2022/03/17 09:48:15;;;;;;;2.72;1.02;;;1.70;99.90;;;;;;5089841;28;20197;-86
2022/03/17 09:50:42;;;;;;;0.60;0.60;;;1.80;99.90;;;;;;5073933;28;20196;-89
2022/03/17 09:53:09;;;;;;;1.30;1.20;;;1.90;99.90;;;;;;5089634;28;20205;-84
2022/03/17 09:55:36;;;;;;;0.80;0.80;;;2.10;99.90;;;;;;5073603;28;20231;-83
2022/03/17 09:58:04;;;;;;;0.70;0.68;;;2.10;99.90;;;;;;5073747;28;20197;-82
2022/03/17 10:00:48;;;;;;;1.15;0.93;;;2.10;99.90;;;;;;5072098;28;20581;-82
2022/03/17 10:03:26;;;;;;;1.33;1.23;;;2.00;99.90;;;;;;5079843;28;20745;-84
2022/03/17 10:05:53;;;;;;;0.50;0.50;;;1.90;99.90;;;;;;5055765;28;20350;-87
2022/03/17 10:08:21;;;;;;;0.30;0.30;;;2.00;99.90;;;;;;5055545;28;20200;-83
2022/03/17 10:10:54;;;;;;;0.30;0.30;;;2.00;99.90;;;;;;5073599;28;20192;-82
2022/03/17 10:13:25;;;;;;;1.40;1.08;;;2.20;99.90;;;;;;5091750;28;20196;-84
2022/03/17 10:16:09;;;;;;;0.63;0.63;;;2.30;99.90;;;;;;5074530;28;20200;-84
2022/03/17 10:18:38;;;;;;;0.70;0.70;;;2.30;99.90;;;;;;5073254;28;20546;-85
2022/03/17 10:21:06;;;;;;;4.95;1.80;;;2.40;99.90;;;;;;5071932;28;20217;-88
2022/03/17 10:23:33;;;;;;;1.02;1.02;;;2.30;99.90;;;;;;5073531;28;20639;-88
2022/03/17 10:25:59;;;;;;;1.02;0.93;;;2.40;99.90;;;;;;5073133;28;20189;-85
2022/03/17 10:28:27;;;;;;;0.32;0.32;;;2.50;99.90;;;;;;5055103;28;20192;-85
2022/03/17 10:31:04;;;;;;;0.35;0.35;;;2.50;99.90;;;;;;5077202;28;20561;-84
2022/03/17 10:33:30;;;;;;;0.43;0.43;;;2.70;99.90;;;;;;5073889;28;20611;-87
2022/03/17 10:36:13;;;;;;;1.05;0.95;;;2.80;99.90;;;;;;5073987;28;20195;-84
2022/03/17 10:38:43;;;;;;;0.52;0.52;;;2.90;99.90;;;;;;5092952;28;20566;-83
2022/03/17 10:41:12;;;;;;;1.13;1.08;;;3.10;99.90;;;;;;5075805;28;20249;-84
2022/03/17 10:44:02;;;;;;;0.77;0.77;;;3.20;99.90;;;;;;5075542;28;20296;-83
2022/03/17 10:46:29;;;;;;;0.93;0.93;;;3.20;99.90;;;;;;5076387;28;20208;-84
2022/03/17 10:49:03;;;;;;;0.55;0.55;;;3.20;99.90;;;;;;5074976;28;20663;-82
2022/03/17 10:51:43;;;;;;;1.35;1.25;;;3.40;99.90;;;;;;5074449;28;20206;-82
2022/03/17 10:54:09;;;;;;;0.32;0.32;;;3.50;99.90;;;;;;5074770;28;20202;-83
2022/03/17 10:56:37;;;;;;;0.93;0.90;;;3.30;99.90;;;;;;5074616;28;20562;-82
2022/03/17 10:59:05;;;;;;;0.35;0.35;;;3.30;99.90;;;;;;5074715;28;20666;-82
2022/03/17 11:01:38;;;;;;;0.68;0.68;;;3.50;99.90;;;;;;5092636;28;20650;-83
2022/03/17 11:04:05;;;;;;;5.25;0.93;;;3.60;99.90;;;;;;5067744;28;20737;-84
2022/03/17 11:06:32;;;;;;;0.50;0.50;;;3.50;99.90;;;;;;5067710;28;20732;-84
2022/03/17 11:09:01;;;;;;;0.60;0.60;;;3.50;99.90;;;;;;5065692;28;20276;-85
2022/03/17 11:11:29;;;;;;;0.77;0.75;;;3.50;99.90;;;;;;5071047;28;20207;-84
2022/03/17 11:13:56;;;;;;;1.88;1.40;;;3.60;99.90;;;;;;5056428;28;20691;-84
2022/03/17 11:16:35;;;;;;;3.08;1.52;;;3.60;99.90;;;;;;5052295;28;20234;-84
2022/03/17 11:19:02;;;;;;;2.90;0.95;;;3.60;99.90;;;;;;5051155;28;20200;-83
2022/03/17 11:21:30;;;;;;;0.68;0.68;;;3.70;99.90;;;;;;5067682;28;20189;-83
2022/03/17 11:24:04;;;;;;;0.50;0.45;;;3.70;99.90;;;;;;5051181;28;20247;-84
2022/03/17 11:26:37;;;;;;;2.38;1.85;;;3.80;99.90;;;;;;5050948;28;20192;-83
2022/03/17 11:29:08;;;;;;;2.38;1.25;;;3.80;99.90;;;;;;5051565;28;20560;-83
2022/03/17 11:31:58;;;;;;;0.50;0.50;;;3.90;99.90;;;;;;5050821;28;20228;-84
2022/03/17 11:34:46;;;;;;;0.50;0.50;;;3.90;99.90;;;;;;5052234;28;20558;-82
2022/03/17 11:37:15;;;;;;;0.52;0.52;;;4.00;99.90;;;;;;5051091;28;20209;-83
2022/03/17 11:40:06;;;;;;;0.43;0.40;;;4.10;99.90;;;;;;5052100;28;20216;-83
2022/03/17 11:42:42;;;;;;;0.60;0.60;;;4.20;99.90;;;;;;5050816;28;20205;-83
2022/03/17 11:45:34;;;;;;;0.77;0.77;;;4.10;99.90;;;;;;5051013;28;20204;-83
2022/03/17 11:48:06;;;;;;;0.60;0.60;;;4.30;99.90;;;;;;5049867;28;20201;-83
2022/03/17 11:50:38;;;;;;;1.35;1.25;;;4.30;99.90;;;;;;5051080;28;20215;-84
2022/03/17 11:53:06;;;;;;;0.63;0.63;;;4.50;99.90;;;;;;5050648;28;20753;-80
2022/03/17 11:55:41;;;;;;;0.50;0.50;;;4.50;99.90;;;;;;5050644;28;20193;-83
2022/03/17 11:58:16;;;;;;;2.17;1.45;;;4.60;99.90;;;;;;5052718;28;20686;-81
2022/03/17 12:00:46;;;;;;;0.95;0.85;;;4.60;99.90;;;;;;5069699;28;20241;-83
2022/03/17 12:03:13;;;;;;;1.10;1.02;;;4.60;99.90;;;;;;5076068;28;20228;-81
2022/03/17 12:05:42;;;;;;;0.80;0.63;;;4.70;99.90;;;;;;5053685;28;20208;-83
2022/03/17 12:08:08;;;;;;;1.15;1.05;;;4.70;99.90;;;;;;5054040;28;20200;-83
2022/03/17 12:11:02;;;;;;;0.73;0.73;;;4.80;99.90;;;;;;5052452;28;20240;-82
2022/03/17 12:13:27;;;;;;;1.65;1.38;;;4.80;99.90;;;;;;5033820;28;20201;-82
2022/03/17 12:15:56;;;;;;;1.63;1.52;;;4.70;99.90;;;;;;5064340;28;20197;-82
2022/03/17 12:18:22;;;;;;;0.77;0.77;;;4.90;99.90;;;;;;5070498;28;20197;-83
2022/03/17 12:20:52;;;;;;;1.02;1.02;;;5.00;99.90;;;;;;5071761;28;20549;-83
2022/03/17 12:23:44;;;;;;;1.63;1.33;;;4.90;99.90;;;;;;5071739;28;20306;-82
2022/03/17 12:26:10;;;;;;;3.47;0.95;;;5.00;99.90;;;;;;5074144;28;20189;-83
2022/03/17 12:28:44;;;;;;;8.07;2.45;;;4.90;99.90;;;;;;5091057;28;20200;-82
2022/03/17 12:31:10;;;;;;;0.88;0.88;;;4.80;99.90;;;;;;5091075;28;20655;-82
2022/03/17 12:33:38;;;;;;;1.58;1.00;;;4.70;99.90;;;;;;5075121;28;20196;-82
2022/03/17 12:36:06;;;;;;;0.60;0.60;;;4.60;99.90;;;;;;5075325;28;20286;-82
2022/03/17 12:38:33;;;;;;;1.33;0.73;;;4.50;99.90;;;;;;5090852;28;20655;-82
2022/03/17 12:41:00;;;;;;;0.50;0.50;;;4.50;99.90;;;;;;5075148;28;20338;-83
2022/03/17 12:43:26;;;;;;;1.67;1.15;;;4.50;99.90;;;;;;5078658;28;20197;-83
2022/03/17 12:45:52;;;;;;;3.75;1.52;;;4.40;99.90;;;;;;5075239;28;20201;-83
2022/03/17 12:48:20;;;;;;;0.68;0.68;;;4.30;99.90;;;;;;5073847;28;20686;-83
2022/03/17 12:50:46;;;;;;;0.88;0.80;;;4.40;99.90;;;;;;5075096;28;20204;-82
2022/03/17 12:53:13;;;;;;;1.80;1.27;;;4.40;99.90;;;;;;5075009;28;20279;-83
2022/03/17 12:55:38;;;;;;;1.88;1.08;;;4.50;99.90;;;;;;5056695;28;20205;-82
2022/03/17 12:58:04;;;;;;;1.45;1.35;;;4.40;99.90;;;;;;5075036;28;20606;-83
2022/03/17 13:00:32;;;;;;;0.75;0.75;;;4.40;99.90;;;;;;5074375;28;20197;-83
2022/03/17 13:02:59;;;;;;;3.03;1.83;;;4.40;99.90;;;;;;5057352;28;20296;-84
2022/03/17 13:08:12;;;;;;;0.55;0.55;;;4.40;99.90;;;;;;5095470;28;20273;-86
2022/03/17 13:16:09;;;;;;;0.43;0.43;;;4.40;99.90;;;;;;5095303;28;20202;-86
2022/03/17 13:18:45;;;;;;;6.35;1.70;;;4.50;99.90;;;;;;5076591;28;20288;-85